createdAt,value
2017-10-15T00:00:16.159Z,101373.47
2017-10-15T00:01:21.924Z,101373.17
2017-10-15T00:02:28.465Z,101369.19
2017-10-15T00:03:34.231Z,101369.06
2017-10-15T00:04:40.821Z,101373.13
2017-10-15T00:05:46.606Z,101370.09
2017-10-15T00:06:53.136Z,101368.63
2017-10-15T00:07:58.901Z,101371.34
2017-10-15T00:09:03.912Z,101367.30
2017-10-15T00:10:08.833Z,101371.34
2017-10-15T00:11:14.607Z,101369.37
2017-10-15T00:12:21.132Z,101369.11
2017-10-15T00:13:26.913Z,101368.89
2017-10-15T00:14:32.678Z,101370.65
2017-10-15T00:15:38.472Z,101367.66
2017-10-15T00:16:44.233Z,101370.65
2017-10-15T00:17:49.998Z,101365.55
2017-10-15T00:18:55.765Z,101367.22
2017-10-15T00:20:01.555Z,101359.52
2017-10-15T00:21:07.344Z,101361.33
2017-10-15T00:22:13.112Z,101363.08
2017-10-15T00:23:18.881Z,101362.78
2017-10-15T00:24:24.652Z,101360.08
2017-10-15T00:25:31.188Z,101360.77
2017-10-15T00:26:36.968Z,101358.84
2017-10-15T00:27:42.747Z,101357.00
2017-10-15T00:28:48.521Z,101355.33
2017-10-15T00:29:55.058Z,101360.48
2017-10-15T00:31:00.837Z,101358.94
2017-10-15T00:32:07.436Z,101359.84
2017-10-15T00:33:13.018Z,101359.91
2017-10-15T00:34:19.553Z,101355.46
2017-10-15T00:35:25.322Z,101358.25
2017-10-15T00:36:31.086Z,101354.79
2017-10-15T00:37:36.888Z,101356.54
2017-10-15T00:38:42.651Z,101356.06
2017-10-15T00:39:49.191Z,101360.69
2017-10-15T00:40:54.962Z,101368.30
2017-10-15T00:42:01.574Z,101362.57
2017-10-15T00:43:07.205Z,101365.56
2017-10-15T00:44:12.964Z,101359.97
2017-10-15T00:45:18.732Z,101358.38
2017-10-15T00:46:25.260Z,101361.59
2017-10-15T00:47:31.047Z,101362.23
2017-10-15T00:48:37.628Z,101361.42
2017-10-15T00:49:43.392Z,101357.09
2017-10-15T00:50:49.159Z,101362.32
2017-10-15T00:51:54.919Z,101365.05
2017-10-15T00:53:01.464Z,101357.78
2017-10-15T00:54:07.258Z,101361.29
2017-10-15T00:55:12.336Z,101362.19
2017-10-15T00:56:17.405Z,101360.70
2017-10-15T00:57:22.506Z,101355.00
2017-10-15T00:58:28.350Z,101360.30
2017-10-15T00:59:34.218Z,101355.69
2017-10-15T01:00:39.982Z,101353.55
2017-10-15T01:01:45.752Z,101353.94
2017-10-15T01:02:51.182Z,101354.62
2017-10-15T01:03:56.956Z,101353.94
2017-10-15T01:05:03.504Z,101349.53
2017-10-15T01:06:09.350Z,101350.77
2017-10-15T01:07:15.887Z,101351.28
2017-10-15T01:08:21.668Z,101353.42
2017-10-15T01:09:28.239Z,101354.36
2017-10-15T01:10:34.029Z,101351.20
2017-10-15T01:11:39.800Z,101352.18
2017-10-15T01:12:45.568Z,101356.20
2017-10-15T01:13:51.356Z,101350.69
2017-10-15T01:14:57.107Z,101354.23
2017-10-15T01:16:02.897Z,101351.80
2017-10-15T01:17:08.464Z,101350.81
2017-10-15T01:18:14.258Z,101350.30
2017-10-15T01:19:20.455Z,101346.11
2017-10-15T01:20:25.542Z,101348.98
2017-10-15T01:21:31.353Z,101348.84
2017-10-15T01:22:38.284Z,101348.34
2017-10-15T01:23:43.393Z,101344.87
2017-10-15T01:24:48.500Z,101346.19
2017-10-15T01:25:54.339Z,101351.76
2017-10-15T01:26:59.598Z,101343.24
2017-10-15T01:28:05.372Z,101342.95
2017-10-15T01:29:10.448Z,101341.41
2017-10-15T01:30:16.209Z,101342.01
2017-10-15T01:31:21.449Z,101341.44
2017-10-15T01:32:26.904Z,101342.09
2017-10-15T01:33:32.668Z,101349.91
2017-10-15T01:34:39.208Z,101345.08
2017-10-15T01:35:44.296Z,101342.64
2017-10-15T01:36:49.361Z,101341.66
2017-10-15T01:37:54.464Z,101343.97
2017-10-15T01:38:59.880Z,101341.36
2017-10-15T01:40:05.308Z,101344.73
2017-10-15T01:41:10.389Z,101342.52
2017-10-15T01:42:15.478Z,101339.78
2017-10-15T01:43:20.933Z,101346.84
2017-10-15T01:44:26.140Z,101344.48
2017-10-15T01:45:31.575Z,101342.43
2017-10-15T01:46:36.657Z,101346.49
2017-10-15T01:47:43.210Z,101343.55
2017-10-15T01:48:49.436Z,101340.59
2017-10-15T01:49:54.928Z,101340.33
2017-10-15T01:51:00.372Z,101336.48
2017-10-15T01:52:05.252Z,101341.91
2017-10-15T01:53:11.097Z,101338.63
2017-10-15T01:54:17.307Z,101343.16
2017-10-15T01:55:22.382Z,101343.62
2017-10-15T01:56:28.564Z,101339.94
2017-10-15T01:57:34.000Z,101342.52
2017-10-15T01:58:39.781Z,101344.56
2017-10-15T01:59:45.230Z,101346.31
2017-10-15T02:00:50.999Z,101342.68
2017-10-15T02:01:56.764Z,101340.50
2017-10-15T02:03:02.541Z,101341.70
2017-10-15T02:04:08.313Z,101338.63
2017-10-15T02:05:14.116Z,101339.48
2017-10-15T02:06:19.552Z,101339.55
2017-10-15T02:07:25.660Z,101342.81
2017-10-15T02:08:31.813Z,101334.43
2017-10-15T02:09:37.577Z,101340.55
2017-10-15T02:10:43.190Z,101333.40
2017-10-15T02:11:48.957Z,101334.13
2017-10-15T02:12:54.724Z,101335.70
2017-10-15T02:14:00.486Z,101343.91
2017-10-15T02:15:06.997Z,101350.11
2017-10-15T02:16:12.781Z,101345.02
2017-10-15T02:17:19.313Z,101345.67
2017-10-15T02:18:24.900Z,101344.67
2017-10-15T02:19:30.678Z,101343.06
2017-10-15T02:20:36.445Z,101343.22
2017-10-15T02:21:42.248Z,101346.87
2017-10-15T02:22:48.019Z,101347.12
2017-10-15T02:23:53.785Z,101346.64
2017-10-15T02:24:59.557Z,101337.92
2017-10-15T02:26:05.312Z,101342.89
2017-10-15T02:27:11.108Z,101348.06
2017-10-15T02:28:16.874Z,101344.52
2017-10-15T02:29:22.652Z,101341.98
2017-10-15T02:30:28.207Z,101341.39
2017-10-15T02:31:33.973Z,101347.67
2017-10-15T02:32:40.544Z,101347.42
2017-10-15T02:33:47.080Z,101345.50
2017-10-15T02:34:52.861Z,101343.52
2017-10-15T02:35:58.664Z,101342.88
2017-10-15T02:37:04.433Z,101349.16
2017-10-15T02:38:10.993Z,101347.23
2017-10-15T02:39:17.521Z,101351.98
2017-10-15T02:40:23.276Z,101348.73
2017-10-15T02:41:29.174Z,101347.62
2017-10-15T02:42:34.933Z,101355.53
2017-10-15T02:43:40.384Z,101353.23
2017-10-15T02:44:46.730Z,101349.55
2017-10-15T02:45:52.488Z,101349.47
2017-10-15T02:46:57.929Z,101353.27
2017-10-15T02:48:03.706Z,101349.90
2017-10-15T02:49:09.369Z,101348.02
2017-10-15T02:50:15.137Z,101350.80
2017-10-15T02:51:20.906Z,101348.35
2017-10-15T02:52:27.440Z,101353.18
2017-10-15T02:53:33.209Z,101346.30
2017-10-15T02:54:39.780Z,101349.72
2017-10-15T02:55:46.327Z,101350.37
2017-10-15T02:56:52.855Z,101360.03
2017-10-15T02:57:58.432Z,101360.30
2017-10-15T02:59:04.969Z,101357.72
2017-10-15T03:00:10.764Z,101359.95
2017-10-15T03:01:16.324Z,101361.91
2017-10-15T03:02:22.096Z,101364.63
2017-10-15T03:03:28.637Z,101366.43
2017-10-15T03:04:35.919Z,101365.31
2017-10-15T03:05:41.746Z,101372.14
2017-10-15T03:06:47.513Z,101369.31
2017-10-15T03:07:53.297Z,101363.97
2017-10-15T03:08:59.315Z,101369.47
2017-10-15T03:10:05.128Z,101367.25
2017-10-15T03:11:10.935Z,101365.70
2017-10-15T03:12:16.704Z,101370.94
2017-10-15T03:13:22.481Z,101372.59
2017-10-15T03:14:29.021Z,101370.39
2017-10-15T03:15:34.816Z,101371.05
2017-10-15T03:16:40.448Z,101375.11
2017-10-15T03:17:46.229Z,101370.02
2017-10-15T03:18:51.996Z,101374.20
2017-10-15T03:19:57.764Z,101372.37
2017-10-15T03:21:03.528Z,101375.22
2017-10-15T03:22:09.334Z,101371.17
2017-10-15T03:23:15.861Z,101371.67
2017-10-15T03:24:21.620Z,101368.38
2017-10-15T03:25:28.692Z,101374.34
2017-10-15T03:26:35.229Z,101365.75
2017-10-15T03:27:41.072Z,101368.97
2017-10-15T03:28:46.837Z,101365.29
2017-10-15T03:29:52.601Z,101364.11
2017-10-15T03:30:59.137Z,101363.66
2017-10-15T03:32:04.924Z,101359.03
2017-10-15T03:33:10.809Z,101364.80
2017-10-15T03:34:16.580Z,101363.59
2017-10-15T03:35:23.120Z,101363.38
2017-10-15T03:36:29.649Z,101366.27
2017-10-15T03:37:35.415Z,101360.09
2017-10-15T03:38:41.211Z,101359.89
2017-10-15T03:39:47.005Z,101363.94
2017-10-15T03:40:54.267Z,101365.81
2017-10-15T03:42:00.032Z,101365.73
2017-10-15T03:43:05.809Z,101369.00
2017-10-15T03:44:11.601Z,101371.58
2017-10-15T03:45:17.361Z,101368.11
2017-10-15T03:46:23.128Z,101368.38
2017-10-15T03:47:29.653Z,101364.48
2017-10-15T03:48:36.925Z,101366.16
2017-10-15T03:49:42.721Z,101365.69
2017-10-15T03:50:48.489Z,101368.33
2017-10-15T03:51:54.236Z,101367.13
2017-10-15T03:52:59.805Z,101366.66
2017-10-15T03:54:05.561Z,101361.61
2017-10-15T03:55:12.117Z,101365.08
2017-10-15T03:56:18.640Z,101362.73
2017-10-15T03:57:24.415Z,101371.41
2017-10-15T03:58:29.984Z,101364.36
2017-10-15T03:59:35.752Z,101369.16
2017-10-15T04:00:41.540Z,101370.91
2017-10-15T04:01:48.068Z,101368.21
2017-10-15T04:02:53.829Z,101372.73
2017-10-15T04:03:59.412Z,101367.78
2017-10-15T04:05:05.177Z,101372.30
2017-10-15T04:06:10.988Z,101373.13
2017-10-15T04:07:16.596Z,101370.48
2017-10-15T04:08:23.149Z,101370.09
2017-10-15T04:09:29.676Z,101373.63
2017-10-15T04:10:35.441Z,101379.29
2017-10-15T04:11:41.287Z,101370.09
2017-10-15T04:12:47.088Z,101374.89
2017-10-15T04:13:52.668Z,101374.42
2017-10-15T04:14:58.248Z,101372.08
2017-10-15T04:16:04.021Z,101373.45
2017-10-15T04:17:09.804Z,101379.09
2017-10-15T04:18:16.164Z,101374.19
2017-10-15T04:19:22.527Z,101374.47
2017-10-15T04:20:28.672Z,101376.56
2017-10-15T04:21:35.200Z,101375.02
2017-10-15T04:22:40.804Z,101374.31
2017-10-15T04:23:46.602Z,101374.44
2017-10-15T04:24:53.133Z,101375.68
2017-10-15T04:25:58.892Z,101369.91
2017-10-15T04:27:04.749Z,101375.44
2017-10-15T04:28:11.310Z,101371.67
2017-10-15T04:29:17.841Z,101373.27
2017-10-15T04:30:23.601Z,101373.09
2017-10-15T04:31:30.130Z,101375.67
2017-10-15T04:32:35.896Z,101374.77
2017-10-15T04:33:41.670Z,101376.45
2017-10-15T04:34:48.189Z,101380.06
2017-10-15T04:35:53.948Z,101378.58
2017-10-15T04:37:00.491Z,101376.75
2017-10-15T04:38:06.256Z,101375.00
2017-10-15T04:39:12.806Z,101376.75
2017-10-15T04:40:18.568Z,101378.80
2017-10-15T04:41:24.786Z,101380.17
2017-10-15T04:42:32.066Z,101380.59
2017-10-15T04:43:37.824Z,101378.30
2017-10-15T04:44:44.391Z,101385.30
2017-10-15T04:45:50.156Z,101379.83
2017-10-15T04:46:55.928Z,101385.12
2017-10-15T04:48:01.494Z,101381.22
2017-10-15T04:49:08.762Z,101384.81
2017-10-15T04:50:14.549Z,101381.34
2017-10-15T04:51:20.375Z,101377.42
2017-10-15T04:52:26.897Z,101380.92
2017-10-15T04:53:32.656Z,101375.63
2017-10-15T04:54:39.925Z,101381.27
2017-10-15T04:55:45.712Z,101375.20
2017-10-15T04:56:51.491Z,101373.92
2017-10-15T04:57:57.254Z,101382.79
2017-10-15T04:59:03.026Z,101379.76
2017-10-15T05:00:09.556Z,101376.34
2017-10-15T05:01:15.361Z,101377.00
2017-10-15T05:02:21.135Z,101377.20
2017-10-15T05:03:26.901Z,101377.02
2017-10-15T05:04:33.440Z,101376.56
2017-10-15T05:05:39.235Z,101374.08
2017-10-15T05:06:44.834Z,101376.33
2017-10-15T05:07:50.589Z,101371.70
2017-10-15T05:08:57.111Z,101376.06
2017-10-15T05:10:02.699Z,101376.56
2017-10-15T05:11:09.216Z,101377.77
2017-10-15T05:12:15.021Z,101381.44
2017-10-15T05:13:20.597Z,101381.66
2017-10-15T05:14:26.348Z,101382.94
2017-10-15T05:15:31.721Z,101383.30
2017-10-15T05:16:37.498Z,101378.43
2017-10-15T05:17:43.277Z,101377.58
2017-10-15T05:18:49.800Z,101381.63
2017-10-15T05:19:55.566Z,101380.84
2017-10-15T05:21:02.097Z,101376.45
2017-10-15T05:22:07.856Z,101383.07
2017-10-15T05:23:13.641Z,101380.42
2017-10-15T05:24:19.404Z,101376.92
2017-10-15T05:25:25.166Z,101383.36
2017-10-15T05:26:31.028Z,101381.56
2017-10-15T05:27:36.817Z,101381.33
2017-10-15T05:28:42.606Z,101379.11
2017-10-15T05:29:49.156Z,101381.33
2017-10-15T05:30:54.913Z,101384.75
2017-10-15T05:32:00.676Z,101382.58
2017-10-15T05:33:06.708Z,101383.86
2017-10-15T05:34:13.261Z,101389.58
2017-10-15T05:35:19.060Z,101385.45
2017-10-15T05:36:24.624Z,101385.84
2017-10-15T05:37:30.401Z,101384.75
2017-10-15T05:38:36.937Z,101382.41
2017-10-15T05:39:42.428Z,101385.05
2017-10-15T05:40:48.196Z,101381.25
2017-10-15T05:41:54.014Z,101390.81
2017-10-15T05:42:59.776Z,101394.78
2017-10-15T05:44:05.540Z,101389.96
2017-10-15T05:45:11.354Z,101391.83
2017-10-15T05:46:17.121Z,101390.04
2017-10-15T05:47:22.889Z,101397.44
2017-10-15T05:48:29.416Z,101392.14
2017-10-15T05:49:35.174Z,101399.37
2017-10-15T05:50:41.069Z,101393.27
2017-10-15T05:51:46.829Z,101396.73
2017-10-15T05:52:52.248Z,101397.73
2017-10-15T05:53:57.660Z,101396.42
2017-10-15T05:55:03.434Z,101399.17
2017-10-15T05:56:09.230Z,101398.04
2017-10-15T05:57:14.994Z,101403.56
2017-10-15T05:58:20.762Z,101400.72
2017-10-15T05:59:26.530Z,101405.55
2017-10-15T06:00:32.280Z,101408.00
2017-10-15T06:01:38.079Z,101404.45
2017-10-15T06:02:43.836Z,101409.55
2017-10-15T06:03:49.254Z,101408.88
2017-10-15T06:04:55.015Z,101412.45
2017-10-15T06:06:00.248Z,101411.14
2017-10-15T06:07:05.694Z,101413.13
2017-10-15T06:08:11.449Z,101406.08
2017-10-15T06:09:17.033Z,101413.36
2017-10-15T06:10:22.596Z,101413.72
2017-10-15T06:11:28.180Z,101409.75
2017-10-15T06:12:34.964Z,101417.61
2017-10-15T06:13:40.733Z,101416.91
2017-10-15T06:14:46.496Z,101412.16
2017-10-15T06:15:52.249Z,101414.70
2017-10-15T06:18:01.119Z,101417.39
2017-10-15T06:19:06.902Z,101418.56
2017-10-15T06:20:12.675Z,101415.88
2017-10-15T06:21:19.202Z,101416.70
2017-10-15T06:22:24.968Z,101419.34
2017-10-15T06:23:31.542Z,101418.19
2017-10-15T06:24:38.123Z,101413.00
2017-10-15T06:25:43.878Z,101421.60
2017-10-15T06:26:49.640Z,101418.30
2017-10-15T06:27:55.462Z,101417.82
2017-10-15T06:29:01.297Z,101417.89
2017-10-15T06:30:07.071Z,101425.09
2017-10-15T06:31:12.857Z,101424.00
2017-10-15T06:32:19.385Z,101419.09
2017-10-15T06:33:25.206Z,101422.52
2017-10-15T06:34:30.997Z,101423.64
2017-10-15T06:35:37.300Z,101420.92
2017-10-15T06:36:43.080Z,101423.87
2017-10-15T06:37:48.832Z,101425.20
2017-10-15T06:38:55.164Z,101422.55
2017-10-15T06:40:01.752Z,101423.76
2017-10-15T06:41:07.542Z,101415.34
2017-10-15T06:42:13.351Z,101420.09
2017-10-15T06:43:19.124Z,101422.23
2017-10-15T06:44:24.896Z,101429.13
2017-10-15T06:45:30.687Z,101423.87
2017-10-15T06:46:36.448Z,101421.53
2017-10-15T06:47:42.266Z,101418.22
2017-10-15T06:48:48.032Z,101424.94
2017-10-15T06:49:53.810Z,101421.95
2017-10-15T06:50:59.625Z,101429.38
2017-10-15T06:52:05.392Z,101418.41
2017-10-15T06:53:11.164Z,101424.52
2017-10-15T06:54:16.751Z,101423.81
2017-10-15T06:55:22.517Z,101422.30
2017-10-15T06:56:28.317Z,101426.21
2017-10-15T06:57:34.091Z,101421.06
2017-10-15T06:58:39.859Z,101429.55
2017-10-15T06:59:46.393Z,101431.48
2017-10-15T07:00:53.664Z,101427.61
2017-10-15T07:02:00.230Z,101424.06
2017-10-15T07:03:06.020Z,101430.91
2017-10-15T07:04:11.781Z,101425.42
2017-10-15T07:05:17.551Z,101428.41
2017-10-15T07:06:24.849Z,101420.85
2017-10-15T07:07:30.642Z,101430.27
2017-10-15T07:08:36.412Z,101425.36
2017-10-15T07:09:42.187Z,101420.45
2017-10-15T07:10:48.725Z,101421.77
2017-10-15T07:11:56.007Z,101424.17
2017-10-15T07:13:01.896Z,101423.93
2017-10-15T07:14:07.681Z,101421.47
2017-10-15T07:15:13.472Z,101420.94
2017-10-15T07:16:19.236Z,101420.09
2017-10-15T07:17:25.004Z,101425.27
2017-10-15T07:18:30.802Z,101426.39
2017-10-15T07:19:36.573Z,101430.42
2017-10-15T07:20:42.774Z,101425.55
2017-10-15T07:21:48.662Z,101423.67
2017-10-15T07:22:54.711Z,101425.77
2017-10-15T07:24:00.573Z,101429.84
2017-10-15T07:25:07.659Z,101428.27
2017-10-15T07:26:14.941Z,101430.80
2017-10-15T07:27:20.720Z,101430.94
2017-10-15T07:28:26.486Z,101424.59
2017-10-15T07:29:32.282Z,101423.31
2017-10-15T07:30:38.062Z,101423.84
2017-10-15T07:31:43.889Z,101423.37
2017-10-15T07:32:49.648Z,101421.97
2017-10-15T07:33:55.413Z,101427.63
2017-10-15T07:35:01.224Z,101420.80
2017-10-15T07:36:07.062Z,101423.87
2017-10-15T07:37:12.833Z,101417.86
2017-10-15T07:38:18.609Z,101418.05
2017-10-15T07:39:25.149Z,101419.83
2017-10-15T07:40:30.975Z,101415.80
2017-10-15T07:41:36.072Z,101416.66
2017-10-15T07:42:41.852Z,101416.30
2017-10-15T07:43:47.632Z,101407.33
2017-10-15T07:44:54.160Z,101405.98
2017-10-15T07:45:59.953Z,101409.66
2017-10-15T07:47:05.716Z,101401.51
2017-10-15T07:48:11.548Z,101399.83
2017-10-15T07:49:17.332Z,101403.03
2017-10-15T07:50:22.896Z,101406.98
2017-10-15T07:51:29.453Z,101406.66
2017-10-15T07:52:35.014Z,101400.69
2017-10-15T07:53:40.772Z,101408.98
2017-10-15T07:54:46.368Z,101406.80
2017-10-15T07:55:52.147Z,101408.63
2017-10-15T07:56:57.913Z,101399.41
2017-10-15T07:58:04.165Z,101397.24
2017-10-15T07:59:09.927Z,101393.27
2017-10-15T08:00:16.132Z,101390.38
2017-10-15T08:01:21.949Z,101395.08
2017-10-15T08:02:28.522Z,101395.06
2017-10-15T08:03:34.362Z,101393.16
2017-10-15T08:04:40.952Z,101390.95
2017-10-15T08:05:46.743Z,101393.83
2017-10-15T08:06:52.688Z,101393.79
2017-10-15T08:07:58.470Z,101396.69
2017-10-15T08:09:03.966Z,101392.61
2017-10-15T08:10:10.479Z,101391.38
2017-10-15T08:11:16.264Z,101395.27
2017-10-15T08:12:22.101Z,101390.83
2017-10-15T08:13:28.093Z,101392.03
2017-10-15T08:14:34.757Z,101386.05
2017-10-15T08:15:40.509Z,101390.06
2017-10-15T08:16:46.544Z,101389.45
2017-10-15T08:17:52.845Z,101388.88
2017-10-15T08:18:59.051Z,101392.92
2017-10-15T08:20:05.573Z,101392.92
2017-10-15T08:21:12.849Z,101394.05
2017-10-15T08:22:18.605Z,101395.73
2017-10-15T08:23:25.168Z,101400.55
2017-10-15T08:24:31.733Z,101395.07
2017-10-15T08:25:38.260Z,101395.49
2017-10-15T08:26:44.038Z,101402.57
2017-10-15T08:27:50.603Z,101398.21
2017-10-15T08:28:57.105Z,101399.39
2017-10-15T08:30:02.891Z,101401.78
2017-10-15T08:31:09.213Z,101400.72
2017-10-15T08:32:14.961Z,101400.24
2017-10-15T08:33:20.746Z,101393.93
2017-10-15T08:34:27.262Z,101394.34
2017-10-15T08:35:33.041Z,101392.39
2017-10-15T08:36:39.876Z,101393.61
2017-10-15T08:37:46.312Z,101396.74
2017-10-15T08:38:52.325Z,101392.05
2017-10-15T08:39:59.240Z,101394.20
2017-10-15T08:41:05.041Z,101392.77
2017-10-15T08:42:10.900Z,101389.35
2017-10-15T08:43:16.673Z,101394.76
2017-10-15T08:44:23.145Z,101388.39
2017-10-15T08:45:28.706Z,101394.47
2017-10-15T08:46:35.257Z,101395.84
2017-10-15T08:47:41.764Z,101389.59
2017-10-15T08:48:47.536Z,101394.45
2017-10-15T08:49:53.278Z,101387.13
2017-10-15T08:50:59.059Z,101393.08
2017-10-15T08:52:04.846Z,101388.52
2017-10-15T08:53:13.358Z,101387.13
2017-10-15T08:54:18.919Z,101390.30
2017-10-15T08:55:24.991Z,101390.73
2017-10-15T08:56:30.740Z,101385.09
2017-10-15T08:57:36.529Z,101382.34
2017-10-15T08:58:42.331Z,101379.20
2017-10-15T08:59:48.847Z,101381.00
2017-10-15T09:00:54.721Z,101380.81
2017-10-15T09:02:00.475Z,101383.77
2017-10-15T09:03:06.244Z,101383.08
2017-10-15T09:04:12.003Z,101379.92
2017-10-15T09:05:17.788Z,101381.84
2017-10-15T09:06:23.541Z,101377.81
2017-10-15T09:07:29.306Z,101379.45
2017-10-15T09:08:35.072Z,101382.91
2017-10-15T09:09:40.845Z,101380.59
2017-10-15T09:10:46.608Z,101378.64
2017-10-15T09:11:52.343Z,101379.69
2017-10-15T09:12:58.102Z,101377.75
2017-10-15T09:14:04.131Z,101376.73
2017-10-15T09:15:09.917Z,101373.08
2017-10-15T09:16:16.660Z,101378.48
2017-10-15T09:17:22.413Z,101368.81
2017-10-15T09:18:28.175Z,101366.58
2017-10-15T09:19:34.064Z,101369.95
2017-10-15T09:20:39.845Z,101365.00
2017-10-15T09:21:45.663Z,101371.41
2017-10-15T09:22:51.409Z,101362.64
2017-10-15T09:23:57.155Z,101365.45
2017-10-15T09:25:02.940Z,101369.44
2017-10-15T09:26:09.461Z,101364.36
2017-10-15T09:27:15.228Z,101359.08
2017-10-15T09:28:20.972Z,101364.54
2017-10-15T09:29:26.716Z,101361.43
2017-10-15T09:30:33.809Z,101357.12
2017-10-15T09:31:40.323Z,101356.43
2017-10-15T09:32:46.064Z,101352.33
2017-10-15T09:33:52.226Z,101356.28
2017-10-15T09:34:58.757Z,101351.74
2017-10-15T09:36:04.571Z,101351.53
2017-10-15T09:37:11.085Z,101344.00
2017-10-15T09:38:16.857Z,101343.88
2017-10-15T09:39:23.377Z,101342.27
2017-10-15T09:40:29.163Z,101346.55
2017-10-15T09:41:37.289Z,101343.95
2017-10-15T09:42:43.057Z,101345.89
2017-10-15T09:43:48.854Z,101344.77
2017-10-15T09:44:55.379Z,101341.67
2017-10-15T09:46:01.130Z,101345.28
2017-10-15T09:47:06.904Z,101341.63
2017-10-15T09:48:12.657Z,101336.64
2017-10-15T09:49:18.592Z,101344.00
2017-10-15T09:50:24.605Z,101339.67
2017-10-15T09:51:30.375Z,101333.30
2017-10-15T09:52:36.275Z,101337.33
2017-10-15T09:53:42.033Z,101337.91
2017-10-15T09:54:47.786Z,101331.99
2017-10-15T09:55:53.560Z,101334.50
2017-10-15T09:56:59.330Z,101326.32
2017-10-15T09:58:05.138Z,101331.41
2017-10-15T09:59:10.882Z,101322.23
2017-10-15T10:00:16.632Z,101332.98
2017-10-15T10:01:22.389Z,101333.17
2017-10-15T10:02:28.141Z,101327.81
2017-10-15T10:03:33.929Z,101328.86
2017-10-15T10:04:40.447Z,101327.08
2017-10-15T10:05:46.218Z,101330.64
2017-10-15T10:06:52.769Z,101326.03
2017-10-15T10:08:00.089Z,101326.23
2017-10-15T10:09:04.981Z,101326.49
2017-10-15T10:10:11.514Z,101332.56
2017-10-15T10:11:17.298Z,101334.22
2017-10-15T10:12:23.830Z,101331.92
2017-10-15T10:13:31.097Z,101330.19
2017-10-15T10:14:37.208Z,101330.86
2017-10-15T10:15:43.854Z,101328.98
2017-10-15T10:16:49.596Z,101329.00
2017-10-15T10:17:55.378Z,101327.07
2017-10-15T10:19:03.623Z,101324.64
2017-10-15T10:20:09.445Z,101322.77
2017-10-15T10:21:15.219Z,101329.67
2017-10-15T10:22:20.993Z,101320.05
2017-10-15T10:23:26.744Z,101319.77
2017-10-15T10:24:32.519Z,101319.68
2017-10-15T10:25:39.788Z,101322.89
2017-10-15T10:26:45.533Z,101319.98
2017-10-15T10:27:51.410Z,101317.47
2017-10-15T10:28:56.994Z,101309.19
2017-10-15T10:30:02.749Z,101312.38
2017-10-15T10:31:08.680Z,101315.30
2017-10-15T10:32:14.529Z,101316.67
2017-10-15T10:33:21.274Z,101308.27
2017-10-15T10:34:27.089Z,101312.84
2017-10-15T10:35:33.097Z,101306.43
2017-10-15T10:36:39.182Z,101309.27
2017-10-15T10:37:45.907Z,101302.36
2017-10-15T10:38:51.719Z,101304.13
2017-10-15T10:39:57.468Z,101305.83
2017-10-15T10:41:03.217Z,101299.33
2017-10-15T10:42:09.694Z,101297.95
2017-10-15T10:43:15.465Z,101291.14
2017-10-15T10:44:22.106Z,101298.00
2017-10-15T10:45:28.634Z,101293.63
2017-10-15T10:46:34.390Z,101297.07
2017-10-15T10:47:40.278Z,101293.36
2017-10-15T10:48:46.043Z,101291.94
2017-10-15T10:49:52.681Z,101290.13
2017-10-15T10:51:00.115Z,101292.33
2017-10-15T10:52:05.981Z,101295.31
2017-10-15T10:53:12.530Z,101285.22
2017-10-15T10:54:19.823Z,101288.91
2017-10-15T10:55:26.664Z,101283.98
2017-10-15T10:56:34.064Z,101282.91
2017-10-15T10:57:40.605Z,101281.17
2017-10-15T10:58:46.467Z,101283.81
2017-10-15T10:59:53.004Z,101281.95
2017-10-15T11:00:59.564Z,101276.34
2017-10-15T11:02:06.002Z,101279.09
2017-10-15T11:03:11.915Z,101272.57
2017-10-15T11:04:18.449Z,101276.77
2017-10-15T11:05:24.989Z,101274.41
2017-10-15T11:06:30.751Z,101272.23
2017-10-15T11:07:37.339Z,101271.95
2017-10-15T11:08:44.615Z,101271.63
2017-10-15T11:09:51.176Z,101271.62
2017-10-15T11:10:57.491Z,101270.06
2017-10-15T11:12:03.230Z,101276.09
2017-10-15T11:13:08.976Z,101266.63
2017-10-15T11:14:14.720Z,101266.34
2017-10-15T11:15:20.329Z,101263.41
2017-10-15T11:16:26.070Z,101262.79
2017-10-15T11:17:31.826Z,101257.42
2017-10-15T11:18:37.577Z,101256.45
2017-10-15T11:19:43.385Z,101264.45
2017-10-15T11:20:48.978Z,101259.20
2017-10-15T11:21:56.153Z,101253.98
2017-10-15T11:23:01.888Z,101257.09
2017-10-15T11:24:07.634Z,101258.67
2017-10-15T11:25:14.786Z,101250.41
2017-10-15T11:26:20.567Z,101253.70
2017-10-15T11:27:26.365Z,101250.77
2017-10-15T11:28:32.113Z,101247.80
2017-10-15T11:29:37.959Z,101250.09
2017-10-15T11:30:43.719Z,101251.27
2017-10-15T11:31:53.903Z,101241.55
2017-10-15T11:33:01.483Z,101237.59
2017-10-15T11:34:08.494Z,101240.05
2017-10-15T11:35:14.370Z,101235.59
2017-10-15T11:36:22.518Z,101240.32
2017-10-15T11:37:30.190Z,101236.87
2017-10-15T11:38:36.165Z,101229.59
2017-10-15T11:39:45.123Z,101230.76
2017-10-15T11:40:50.892Z,101231.39
2017-10-15T11:41:56.663Z,101224.89
2017-10-15T11:43:04.293Z,101230.45
2017-10-15T11:44:11.818Z,101231.51
2017-10-15T11:45:17.393Z,101230.52
2017-10-15T11:46:23.369Z,101226.81
2017-10-15T11:47:29.361Z,101221.59
2017-10-15T11:48:35.358Z,101227.62
2017-10-15T11:49:41.779Z,101224.09
2017-10-15T11:50:48.466Z,101223.06
2017-10-15T11:51:54.293Z,101225.14
2017-10-15T11:53:00.699Z,101217.09
2017-10-15T11:54:08.253Z,101212.39
2017-10-15T11:55:15.131Z,101213.23
2017-10-15T11:56:21.466Z,101212.03
2017-10-15T11:57:27.569Z,101211.56
2017-10-15T11:58:33.484Z,101206.64
2017-10-15T11:59:39.734Z,101205.55
2017-10-15T12:00:45.798Z,101207.63
2017-10-15T12:01:52.139Z,101206.84
2017-10-15T12:02:58.179Z,101205.24
2017-10-15T12:04:03.932Z,101197.27
2017-10-15T12:05:09.871Z,101200.56
2017-10-15T12:06:15.442Z,101195.38
2017-10-15T12:07:21.900Z,101193.97
2017-10-15T12:08:27.666Z,101193.16
2017-10-15T12:09:33.428Z,101189.45
2017-10-15T12:10:40.317Z,101183.66
2017-10-15T12:11:46.126Z,101188.71
2017-10-15T12:12:51.908Z,101179.55
2017-10-15T12:13:57.660Z,101181.30
2017-10-15T12:15:03.592Z,101178.80
2017-10-15T12:16:09.534Z,101180.08
2017-10-15T12:17:15.352Z,101175.87
2017-10-15T12:18:22.807Z,101178.37
2017-10-15T12:19:28.750Z,101175.87
2017-10-15T12:20:35.454Z,101174.81
2017-10-15T12:21:42.009Z,101178.12
2017-10-15T12:22:48.568Z,101169.58
2017-10-15T12:23:54.689Z,101178.23
2017-10-15T12:25:00.583Z,101169.08
2017-10-15T12:26:07.170Z,101167.99
2017-10-15T12:27:14.649Z,101165.00
2017-10-15T12:28:21.793Z,101161.04
2017-10-15T12:29:28.415Z,101161.70
2017-10-15T12:30:37.692Z,101162.98
2017-10-15T12:31:43.919Z,101163.59
2017-10-15T12:32:51.189Z,101161.58
2017-10-15T12:33:58.170Z,101152.59